createdAt,value
2022-09-25T00:03:52.942Z,99831.91
2022-09-25T00:08:56.819Z,99826.59
2022-09-25T00:14:02.162Z,99826.09
2022-09-25T00:19:22.603Z,99824.88
2022-09-25T00:24:25.310Z,99826.91
2022-09-25T00:29:30.466Z,99830.22
2022-09-25T00:34:33.362Z,99830.56
2022-09-25T00:39:35.996Z,99822.97
2022-09-25T00:44:56.439Z,99812.84
2022-09-25T00:49:59.970Z,99819.81
2022-09-25T00:55:05.264Z,99824.13
2022-09-25T01:00:12.655Z,99824.00
2022-09-25T01:05:17.752Z,99818.09
2022-09-25T01:10:21.774Z,99820.06
2022-09-25T01:15:30.718Z,99815.78
2022-09-25T01:20:56.365Z,99816.13
2022-09-25T01:26:15.445Z,99816.91
2022-09-25T01:31:26.179Z,99812.31
2022-09-25T01:36:30.661Z,99816.44
2022-09-25T01:41:36.925Z,99804.94
2022-09-25T01:46:44.025Z,99805.97
2022-09-25T01:51:49.443Z,99810.72
2022-09-25T01:56:56.670Z,99808.75
2022-09-25T02:02:02.650Z,99807.63
2022-09-25T02:07:09.947Z,99808.63
2022-09-25T02:12:15.323Z,99810.09
2022-09-25T02:17:38.106Z,99796.81
2022-09-25T02:22:40.751Z,99801.59
2022-09-25T02:27:43.867Z,99794.03
2022-09-25T02:32:47.799Z,99803.72
2022-09-25T02:37:50.427Z,99812.13
2022-09-25T02:42:59.626Z,99810.63
2022-09-25T02:48:10.345Z,99803.03
2022-09-25T02:53:24.032Z,99808.84
2022-09-25T02:58:29.675Z,99806.34
2022-09-25T03:03:34.773Z,99814.06
2022-09-25T03:08:39.488Z,99808.66
2022-09-25T03:13:42.689Z,99800.28
2022-09-25T03:18:46.766Z,99796.53
2022-09-25T03:23:56.884Z,99812.13
2022-09-25T03:29:02.069Z,99817.41
2022-09-25T03:34:06.115Z,99819.22
2022-09-25T03:39:10.686Z,99808.69
2022-09-25T03:44:13.581Z,99809.97
2022-09-25T03:49:17.554Z,99814.75
2022-09-25T03:54:20.261Z,99811.31
2022-09-25T03:59:22.896Z,99801.59
2022-09-25T04:04:26.886Z,99810.28
2022-09-25T04:09:29.545Z,99806.69
2022-09-25T04:14:32.114Z,99815.56
2022-09-25T04:19:36.017Z,99805.22
2022-09-25T04:24:50.660Z,99811.63
2022-09-25T04:29:53.264Z,99814.41
2022-09-25T04:34:58.277Z,99811.47
2022-09-25T04:40:00.908Z,99807.50
2022-09-25T04:45:04.025Z,99819.84
2022-09-25T04:50:09.057Z,99819.66
2022-09-25T04:55:11.891Z,99822.78
2022-09-25T05:00:17.089Z,99823.78
2022-09-25T05:05:21.285Z,99834.78
2022-09-25T05:10:27.224Z,99828.38
2022-09-25T05:15:31.643Z,99815.72
2022-09-25T05:20:36.280Z,99820.63
2022-09-25T05:25:39.212Z,99810.47
2022-09-25T05:30:43.547Z,99821.16
2022-09-25T05:35:48.522Z,99824.25
2022-09-25T05:40:51.424Z,99822.44
2022-09-25T05:45:55.482Z,99820.47
2022-09-25T05:50:59.831Z,99832.75
2022-09-25T05:56:03.785Z,99832.97
2022-09-25T06:01:07.532Z,99835.91
2022-09-25T06:06:11.470Z,99840.78
2022-09-25T06:11:14.081Z,99823.69
2022-09-25T06:16:19.327Z,99828.44
2022-09-25T06:21:23.918Z,99823.69
2022-09-25T06:26:29.636Z,99827.28
2022-09-25T06:31:32.720Z,99826.63
2022-09-25T06:36:36.832Z,99830.56
2022-09-25T06:41:40.142Z,99827.53
2022-09-25T06:46:45.081Z,99830.97
2022-09-25T06:51:50.947Z,99836.81
2022-09-25T06:56:53.621Z,99836.69
2022-09-25T07:02:16.649Z,99840.50
2022-09-25T07:07:21.104Z,99834.69
2022-09-25T07:12:23.953Z,99830.25
2022-09-25T07:17:28.791Z,99835.31
2022-09-25T07:22:36.156Z,99830.75
2022-09-25T07:27:38.959Z,99834.03
2022-09-25T07:32:44.843Z,99823.59
2022-09-25T07:37:48.816Z,99833.44
2022-09-25T07:42:52.041Z,99828.47
2022-09-25T07:47:57.110Z,99834.41
2022-09-25T07:53:01.501Z,99821.88
2022-09-25T07:58:04.337Z,99828.38
2022-09-25T08:03:07.307Z,99821.88
2022-09-25T08:08:11.305Z,99820.44
2022-09-25T08:13:14.270Z,99818.00
2022-09-25T08:18:16.862Z,99818.09
2022-09-25T08:23:20.805Z,99820.06
2022-09-25T08:28:23.489Z,99824.00
2022-09-25T08:33:26.414Z,99818.88
2022-09-25T08:38:32.699Z,99816.25
2022-09-25T08:43:37.610Z,99816.97
2022-09-25T08:49:02.183Z,99804.53
2022-09-25T08:54:06.654Z,99814.91
2022-09-25T08:59:21.276Z,99814.97
2022-09-25T09:04:27.757Z,99812.91
2022-09-25T09:09:35.950Z,99811.25
2022-09-25T09:14:43.862Z,99821.53
2022-09-25T09:19:48.342Z,99814.94
2022-09-25T09:24:56.412Z,99810.88
2022-09-25T09:30:11.230Z,99815.16
2022-09-25T09:35:23.969Z,99811.53
2022-09-25T09:40:47.138Z,99813.47
2022-09-25T09:45:53.990Z,99814.06
2022-09-25T09:51:00.982Z,99817.44
2022-09-25T09:56:09.341Z,99805.28
2022-09-25T10:01:36.695Z,99807.84
2022-09-25T10:06:39.301Z,99800.47
2022-09-25T10:11:45.570Z,99794.13
2022-09-25T10:16:48.684Z,99779.69
2022-09-25T10:21:54.350Z,99794.06
2022-09-25T10:27:13.033Z,99781.53
2022-09-25T10:32:17.252Z,99777.09
2022-09-25T10:37:22.210Z,99767.38
2022-09-25T10:42:47.324Z,99757.88
2022-09-25T10:48:08.465Z,99758.06
2022-09-25T10:53:28.195Z,99741.16
2022-09-25T10:58:36.846Z,99742.72
2022-09-25T11:03:58.134Z,99744.34
2022-09-25T11:09:11.603Z,99740.72
2022-09-25T11:14:28.646Z,99727.72
2022-09-25T11:19:33.087Z,99730.88
2022-09-25T11:24:50.624Z,99734.88
2022-09-25T11:30:03.086Z,99724.84
2022-09-25T11:35:19.728Z,99718.38
2022-09-25T11:40:49.883Z,99705.47
2022-09-25T11:45:59.613Z,99706.53
2022-09-25T11:51:09.537Z,99708.44
2022-09-25T11:56:23.876Z,99700.22
2022-09-25T12:01:34.290Z,99698.16
2022-09-25T12:06:49.414Z,99699.78
2022-09-25T12:11:56.341Z,99690.06
2022-09-25T12:17:04.673Z,99691.69
2022-09-25T12:22:11.470Z,99695.50
2022-09-25T12:27:26.363Z,99689.88
2022-09-25T12:32:40.691Z,99686.09
2022-09-25T12:37:46.610Z,99683.13
2022-09-25T12:42:54.902Z,99680.06
2022-09-25T12:48:12.950Z,99668.50
2022-09-25T12:53:30.898Z,99660.69
2022-09-25T12:58:45.652Z,99655.84
2022-09-25T13:03:54.563Z,99649.63
2022-09-25T13:09:03.288Z,99640.88
2022-09-25T13:14:09.354Z,99639.84
2022-09-25T13:19:26.463Z,99644.09
2022-09-25T13:24:29.299Z,99641.03
2022-09-25T13:29:38.773Z,99640.63
2022-09-25T13:34:43.219Z,99631.22
2022-09-25T13:40:04.916Z,99615.47
2022-09-25T13:45:36.222Z,99616.72
2022-09-25T13:50:51.706Z,99618.72
2022-09-25T13:56:25.772Z,99611.34
2022-09-25T14:01:35.386Z,99606.94
2022-09-25T14:06:41.581Z,99611.50
2022-09-25T14:11:52.620Z,99616.97
2022-09-25T14:16:58.382Z,99601.19
2022-09-25T14:22:04.284Z,99601.81
2022-09-25T14:27:19.835Z,99601.66
2022-09-25T14:32:54.563Z,99590.03
2022-09-25T14:38:15.114Z,99590.34
2022-09-25T14:43:40.242Z,99591.38
2022-09-25T14:48:46.060Z,99594.63
2022-09-25T14:53:53.967Z,99586.31
2022-09-25T14:58:59.028Z,99572.22
2022-09-25T15:04:04.335Z,99565.47
2022-09-25T15:09:29.059Z,99561.41
2022-09-25T15:14:31.647Z,99560.78
2022-09-25T15:19:36.458Z,99565.22
2022-09-25T15:24:41.588Z,99565.63
2022-09-25T15:29:46.374Z,99571.41
2022-09-25T15:34:49.145Z,99565.50
2022-09-25T15:39:54.873Z,99571.72
2022-09-25T15:44:58.387Z,99575.69
2022-09-25T15:50:01.331Z,99576.41
2022-09-25T15:55:08.174Z,99570.56
2022-09-25T16:00:36.194Z,99568.91
2022-09-25T16:05:45.380Z,99575.03
2022-09-25T16:10:50.404Z,99570.63
2022-09-25T16:15:54.465Z,99573.09
2022-09-25T16:20:59.378Z,99576.44
2022-09-25T16:26:03.701Z,99564.13
2022-09-25T16:31:08.314Z,99570.28
2022-09-25T16:36:17.682Z,99564.06
2022-09-25T16:41:23.094Z,99565.34
2022-09-25T16:46:25.806Z,99570.88
2022-09-25T16:51:30.006Z,99576.84
2022-09-25T16:56:48.075Z,99578.94
2022-09-25T17:01:53.153Z,99577.72
2022-09-25T17:06:57.968Z,99586.09
2022-09-25T17:12:07.271Z,99574.28
2022-09-25T17:17:10.522Z,99576.13
2022-09-25T17:22:13.278Z,99570.56
2022-09-25T17:27:17.499Z,99569.97
2022-09-25T17:32:20.135Z,99570.19
2022-09-25T17:37:22.882Z,99573.63
2022-09-25T17:42:27.698Z,99582.03
2022-09-25T17:47:31.854Z,99585.06
2022-09-25T17:52:34.421Z,99578.34
2022-09-25T17:57:38.361Z,99589.34
2022-09-25T18:02:41.037Z,99591.41
2022-09-25T18:07:43.881Z,99585.88
2022-09-25T18:12:48.247Z,99586.06
2022-09-25T18:17:53.356Z,99589.31
2022-09-25T18:22:56.542Z,99590.16
2022-09-25T18:28:00.572Z,99587.91
2022-09-25T18:33:03.200Z,99586.88
2022-09-25T18:38:05.961Z,99586.66
2022-09-25T18:43:10.661Z,99588.69
2022-09-25T18:48:13.459Z,99583.22
2022-09-25T18:53:16.568Z,99584.63
2022-09-25T18:58:20.817Z,99587.06
2022-09-25T19:03:23.609Z,99574.84
2022-09-25T19:08:26.559Z,99581.97
2022-09-25T19:13:30.586Z,99585.41
2022-09-25T19:18:33.281Z,99571.38
2022-09-25T19:23:36.292Z,99572.38
2022-09-25T19:28:41.033Z,99581.31
2022-09-25T19:33:44.099Z,99581.66
2022-09-25T19:38:47.358Z,99582.09
2022-09-25T19:43:53.811Z,99580.41
2022-09-25T19:48:56.772Z,99586.28
2022-09-25T19:53:59.556Z,99584.44
2022-09-25T19:59:06.961Z,99587.72
2022-09-25T20:04:17.174Z,99581.00
2022-09-25T20:09:21.148Z,99587.50
2022-09-25T20:14:26.236Z,99586.69
2022-09-25T20:19:28.810Z,99599.34
2022-09-25T20:24:31.365Z,99593.84
2022-09-25T20:29:36.711Z,99593.03
2022-09-25T20:34:39.356Z,99589.78
2022-09-25T20:39:42.091Z,99584.94
2022-09-25T20:44:46.216Z,99579.19
2022-09-25T20:49:49.228Z,99585.09
2022-09-25T20:54:51.850Z,99599.31
2022-09-25T20:59:56.808Z,99614.63
2022-09-25T21:04:59.738Z,99609.00
2022-09-25T21:10:02.421Z,99604.44
2022-09-25T21:15:07.580Z,99603.19
2022-09-25T21:20:11.187Z,99591.28
2022-09-25T21:25:14.319Z,99600.88
2022-09-25T21:30:18.613Z,99607.81
2022-09-25T21:35:21.704Z,99587.75
2022-09-25T21:40:24.396Z,99588.69
2022-09-25T21:45:28.475Z,99579.91
2022-09-25T21:50:33.536Z,99584.38
2022-09-25T21:55:36.507Z,99574.28
2022-09-25T22:00:40.472Z,99575.22
2022-09-25T22:05:43.092Z,99576.34
2022-09-25T22:10:55.830Z,99575.66
2022-09-25T22:16:05.094Z,99581.66
2022-09-25T22:21:07.734Z,99575.63
2022-09-25T22:26:11.152Z,99568.53
2022-09-25T22:31:16.788Z,99562.84
2022-09-25T22:36:19.632Z,99556.19
2022-09-25T22:41:22.554Z,99553.53
2022-09-25T22:46:26.790Z,99539.84
2022-09-25T22:51:29.393Z,99537.88
2022-09-25T22:56:33.154Z,99528.50
2022-09-25T23:01:43.059Z,99525.16
2022-09-25T23:06:45.794Z,99516.72
2022-09-25T23:11:48.500Z,99510.00
2022-09-25T23:16:54.080Z,99515.28
2022-09-25T23:21:56.727Z,99509.63
2022-09-25T23:26:59.323Z,99512.66
2022-09-25T23:32:07.920Z,99511.03
2022-09-25T23:37:10.670Z,99504.78
2022-09-25T23:42:13.244Z,99503.47
2022-09-25T23:47:17.303Z,99502.06
2022-09-25T23:52:19.955Z,99492.91
2022-09-25T23:57:22.574Z,99493.59
